sensor_id;sensor_type;location;lat;lon;timestamp;P1;durP1;ratioP1;P2;durP2;ratioP2
37955;SDS011;23776;51.592;7.180;2023-12-22T00:00:17;10.80;;;2.47;;
37955;SDS011;23776;51.592;7.180;2023-12-22T00:02:43;13.98;;;1.67;;
37955;SDS011;23776;51.592;7.180;2023-12-22T00:05:08;15.55;;;2.13;;
37955;SDS011;23776;51.592;7.180;2023-12-22T00:07:34;14.10;;;2.08;;
37955;SDS011;23776;51.592;7.180;2023-12-22T00:10:00;13.10;;;1.55;;
37955;SDS011;23776;51.592;7.180;2023-12-22T00:12:25;13.70;;;2.40;;
37955;SDS011;23776;51.592;7.180;2023-12-22T00:14:51;18.58;;;1.83;;
37955;SDS011;23776;51.592;7.180;2023-12-22T00:17:17;12.20;;;1.98;;
37955;SDS011;23776;51.592;7.180;2023-12-22T00:19:42;14.35;;;1.95;;
37955;SDS011;23776;51.592;7.180;2023-12-22T00:22:08;17.88;;;1.98;;
37955;SDS011;23776;51.592;7.180;2023-12-22T00:24:33;10.40;;;1.55;;
37955;SDS011;23776;51.592;7.180;2023-12-22T00:26:59;13.90;;;2.13;;
37955;SDS011;23776;51.592;7.180;2023-12-22T00:29:24;19.10;;;2.08;;
37955;SDS011;23776;51.592;7.180;2023-12-22T00:31:50;10.23;;;1.20;;
37955;SDS011;23776;51.592;7.180;2023-12-22T00:34:16;14.15;;;1.65;;
37955;SDS011;23776;51.592;7.180;2023-12-22T00:36:41;15.40;;;1.50;;
37955;SDS011;23776;51.592;7.180;2023-12-22T00:39:07;26.92;;;2.13;;
37955;SDS011;23776;51.592;7.180;2023-12-22T00:41:32;15.45;;;1.75;;
37955;SDS011;23776;51.592;7.180;2023-12-22T00:43:58;18.77;;;1.98;;
37955;SDS011;23776;51.592;7.180;2023-12-22T00:46:24;12.10;;;1.90;;
37955;SDS011;23776;51.592;7.180;2023-12-22T00:48:49;14.27;;;1.90;;
37955;SDS011;23776;51.592;7.180;2023-12-22T00:51:15;13.15;;;1.77;;
37955;SDS011;23776;51.592;7.180;2023-12-22T00:53:41;19.27;;;1.55;;
37955;SDS011;23776;51.592;7.180;2023-12-22T00:56:07;13.15;;;1.65;;
37955;SDS011;23776;51.592;7.180;2023-12-22T00:58:33;21.65;;;2.17;;
37955;SDS011;23776;51.592;7.180;2023-12-22T01:00:58;21.52;;;1.88;;
37955;SDS011;23776;51.592;7.180;2023-12-22T01:03:24;9.48;;;1.95;;
37955;SDS011;23776;51.592;7.180;2023-12-22T01:05:49;7.95;;;1.55;;
37955;SDS011;23776;51.592;7.180;2023-12-22T01:08:15;14.68;;;1.98;;
37955;SDS011;23776;51.592;7.180;2023-12-22T01:10:41;15.38;;;2.55;;
37955;SDS011;23776;51.592;7.180;2023-12-22T01:13:06;8.77;;;2.03;;
37955;SDS011;23776;51.592;7.180;2023-12-22T01:15:32;9.35;;;1.38;;
37955;SDS011;23776;51.592;7.180;2023-12-22T01:17:57;11.95;;;1.45;;
37955;SDS011;23776;51.592;7.180;2023-12-22T01:20:23;15.63;;;1.88;;
37955;SDS011;23776;51.592;7.180;2023-12-22T01:22:48;7.97;;;1.42;;
37955;SDS011;23776;51.592;7.180;2023-12-22T01:25:14;20.48;;;1.90;;
37955;SDS011;23776;51.592;7.180;2023-12-22T01:27:40;8.90;;;1.70;;
37955;SDS011;23776;51.592;7.180;2023-12-22T01:30:05;14.32;;;2.15;;
37955;SDS011;23776;51.592;7.180;2023-12-22T01:32:31;9.48;;;1.63;;
37955;SDS011;23776;51.592;7.180;2023-12-22T01:35:00;14.45;;;2.00;;
37955;SDS011;23776;51.592;7.180;2023-12-22T01:37:29;20.60;;;2.97;;
37955;SDS011;23776;51.592;7.180;2023-12-22T01:39:55;15.57;;;2.47;;
37955;SDS011;23776;51.592;7.180;2023-12-22T01:42:20;16.90;;;1.60;;
37955;SDS011;23776;51.592;7.180;2023-12-22T01:44:46;24.58;;;2.47;;
37955;SDS011;23776;51.592;7.180;2023-12-22T01:47:11;19.88;;;2.17;;
37955;SDS011;23776;51.592;7.180;2023-12-22T01:49:38;18.38;;;2.00;;
37955;SDS011;23776;51.592;7.180;2023-12-22T01:52:04;7.75;;;1.40;;
37955;SDS011;23776;51.592;7.180;2023-12-22T01:54:30;13.02;;;1.48;;
37955;SDS011;23776;51.592;7.180;2023-12-22T01:56:56;11.85;;;1.48;;
37955;SDS011;23776;51.592;7.180;2023-12-22T01:59:22;5.25;;;0.80;;
37955;SDS011;23776;51.592;7.180;2023-12-22T02:01:48;18.83;;;1.52;;
37955;SDS011;23776;51.592;7.180;2023-12-22T02:04:14;6.20;;;0.80;;
37955;SDS011;23776;51.592;7.180;2023-12-22T02:06:40;8.32;;;1.17;;
37955;SDS011;23776;51.592;7.180;2023-12-22T02:09:07;9.52;;;1.15;;
37955;SDS011;23776;51.592;7.180;2023-12-22T02:11:33;8.18;;;1.05;;
37955;SDS011;23776;51.592;7.180;2023-12-22T02:13:58;14.00;;;0.95;;
37955;SDS011;23776;51.592;7.180;2023-12-22T02:16:41;4.68;;;0.90;;
37955;SDS011;23776;51.592;7.180;2023-12-22T02:22:03;6.15;;;1.38;;
37955;SDS011;23776;51.592;7.180;2023-12-22T02:24:32;8.20;;;1.30;;
37955;SDS011;23776;51.592;7.180;2023-12-22T02:27:02;8.02;;;0.82;;
37955;SDS011;23776;51.592;7.180;2023-12-22T02:29:37;9.75;;;1.15;;
37955;SDS011;23776;51.592;7.180;2023-12-22T02:32:10;15.68;;;1.40;;
37955;SDS011;23776;51.592;7.180;2023-12-22T02:34:41;3.75;;;0.80;;
37955;SDS011;23776;51.592;7.180;2023-12-22T02:37:10;5.10;;;1.17;;
37955;SDS011;23776;51.592;7.180;2023-12-22T02:39:36;11.02;;;1.23;;
37955;SDS011;23776;51.592;7.180;2023-12-22T02:42:03;11.93;;;1.00;;
37955;SDS011;23776;51.592;7.180;2023-12-22T02:44:30;9.27;;;1.20;;
37955;SDS011;23776;51.592;7.180;2023-12-22T02:46:57;3.50;;;1.20;;
37955;SDS011;23776;51.592;7.180;2023-12-22T02:49:22;9.25;;;1.02;;
37955;SDS011;23776;51.592;7.180;2023-12-22T02:51:48;5.78;;;0.95;;
37955;SDS011;23776;51.592;7.180;2023-12-22T02:54:13;4.43;;;1.40;;
37955;SDS011;23776;51.592;7.180;2023-12-22T02:56:39;7.82;;;1.35;;
37955;SDS011;23776;51.592;7.180;2023-12-22T02:59:04;9.82;;;1.10;;
37955;SDS011;23776;51.592;7.180;2023-12-22T03:01:30;8.48;;;1.15;;
37955;SDS011;23776;51.592;7.180;2023-12-22T03:03:55;10.60;;;1.38;;
37955;SDS011;23776;51.592;7.180;2023-12-22T03:06:21;15.40;;;1.98;;
37955;SDS011;23776;51.592;7.180;2023-12-22T03:08:47;10.43;;;1.65;;
37955;SDS011;23776;51.592;7.180;2023-12-22T03:11:12;11.50;;;1.08;;
37955;SDS011;23776;51.592;7.180;2023-12-22T03:13:38;6.55;;;1.25;;
37955;SDS011;23776;51.592;7.180;2023-12-22T03:16:07;14.43;;;1.58;;
37955;SDS011;23776;51.592;7.180;2023-12-22T03:18:33;12.38;;;1.65;;
37955;SDS011;23776;51.592;7.180;2023-12-22T03:20:59;8.70;;;1.55;;
37955;SDS011;23776;51.592;7.180;2023-12-22T03:23:24;13.73;;;1.38;;
37955;SDS011;23776;51.592;7.180;2023-12-22T03:25:50;4.95;;;1.50;;
37955;SDS011;23776;51.592;7.180;2023-12-22T03:28:15;6.32;;;1.08;;
37955;SDS011;23776;51.592;7.180;2023-12-22T03:30:41;14.15;;;1.63;;
37955;SDS011;23776;51.592;7.180;2023-12-22T03:33:07;12.07;;;1.25;;
37955;SDS011;23776;51.592;7.180;2023-12-22T03:35:32;8.90;;;1.23;;
37955;SDS011;23776;51.592;7.180;2023-12-22T03:37:58;10.45;;;1.10;;
37955;SDS011;23776;51.592;7.180;2023-12-22T03:40:24;3.15;;;0.80;;
37955;SDS011;23776;51.592;7.180;2023-12-22T03:42:49;15.23;;;1.52;;
37955;SDS011;23776;51.592;7.180;2023-12-22T03:45:15;11.15;;;1.55;;
37955;SDS011;23776;51.592;7.180;2023-12-22T03:47:40;8.90;;;1.02;;
37955;SDS011;23776;51.592;7.180;2023-12-22T03:50:06;10.20;;;1.20;;
37955;SDS011;23776;51.592;7.180;2023-12-22T03:52:32;7.60;;;1.20;;
37955;SDS011;23776;51.592;7.180;2023-12-22T03:54:57;18.00;;;1.88;;
37955;SDS011;23776;51.592;7.180;2023-12-22T03:57:23;11.35;;;2.08;;
37955;SDS011;23776;51.592;7.180;2023-12-22T03:59:48;12.13;;;1.92;;
37955;SDS011;23776;51.592;7.180;2023-12-22T04:02:14;18.35;;;2.67;;
37955;SDS011;23776;51.592;7.180;2023-12-22T04:04:40;12.75;;;1.67;;
37955;SDS011;23776;51.592;7.180;2023-12-22T04:07:05;6.88;;;1.23;;
37955;SDS011;23776;51.592;7.180;2023-12-22T04:09:31;9.02;;;1.13;;
37955;SDS011;23776;51.592;7.180;2023-12-22T04:11:56;3.08;;;0.88;;
37955;SDS011;23776;51.592;7.180;2023-12-22T04:14:22;4.00;;;0.60;;
37955;SDS011;23776;51.592;7.180;2023-12-22T04:16:48;8.15;;;0.98;;
37955;SDS011;23776;51.592;7.180;2023-12-22T04:19:13;13.90;;;1.52;;
37955;SDS011;23776;51.592;7.180;2023-12-22T04:21:39;4.10;;;0.93;;
37955;SDS011;23776;51.592;7.180;2023-12-22T04:24:04;13.15;;;1.00;;
37955;SDS011;23776;51.592;7.180;2023-12-22T04:26:30;9.63;;;0.73;;
37955;SDS011;23776;51.592;7.180;2023-12-22T04:28:56;4.22;;;1.60;;
37955;SDS011;23776;51.592;7.180;2023-12-22T04:31:21;6.78;;;1.35;;
37955;SDS011;23776;51.592;7.180;2023-12-22T04:33:47;6.93;;;1.60;;
37955;SDS011;23776;51.592;7.180;2023-12-22T04:36:12;9.57;;;1.13;;
37955;SDS011;23776;51.592;7.180;2023-12-22T04:38:38;15.82;;;1.65;;
37955;SDS011;23776;51.592;7.180;2023-12-22T04:41:05;10.48;;;1.33;;
37955;SDS011;23776;51.592;7.180;2023-12-22T04:43:31;17.05;;;1.92;;
37955;SDS011;23776;51.592;7.180;2023-12-22T04:45:56;13.18;;;1.65;;
37955;SDS011;23776;51.592;7.180;2023-12-22T04:48:22;9.50;;;0.95;;
37955;SDS011;23776;51.592;7.180;2023-12-22T04:50:47;6.80;;;1.30;;
37955;SDS011;23776;51.592;7.180;2023-12-22T04:53:13;6.10;;;1.00;;
37955;SDS011;23776;51.592;7.180;2023-12-22T04:55:38;18.63;;;1.83;;
37955;SDS011;23776;51.592;7.180;2023-12-22T04:58:04;9.35;;;1.35;;
37955;SDS011;23776;51.592;7.180;2023-12-22T05:00:30;9.27;;;1.27;;
37955;SDS011;23776;51.592;7.180;2023-12-22T05:02:55;10.35;;;1.58;;
37955;SDS011;23776;51.592;7.180;2023-12-22T05:05:21;7.72;;;1.15;;
37955;SDS011;23776;51.592;7.180;2023-12-22T05:07:46;7.90;;;1.50;;
37955;SDS011;23776;51.592;7.180;2023-12-22T05:10:12;8.55;;;1.73;;
37955;SDS011;23776;51.592;7.180;2023-12-22T05:12:37;15.75;;;1.45;;
37955;SDS011;23776;51.592;7.180;2023-12-22T05:15:03;10.65;;;1.63;;
37955;SDS011;23776;51.592;7.180;2023-12-22T05:17:29;11.00;;;1.45;;
37955;SDS011;23776;51.592;7.180;2023-12-22T05:19:55;13.50;;;1.98;;
37955;SDS011;23776;51.592;7.180;2023-12-22T05:22:20;11.20;;;1.90;;
37955;SDS011;23776;51.592;7.180;2023-12-22T05:24:46;12.10;;;2.50;;
37955;SDS011;23776;51.592;7.180;2023-12-22T05:27:12;4.72;;;1.17;;
37955;SDS011;23776;51.592;7.180;2023-12-22T05:29:37;7.20;;;1.75;;
37955;SDS011;23776;51.592;7.180;2023-12-22T05:32:03;8.93;;;2.00;;
37955;SDS011;23776;51.592;7.180;2023-12-22T05:34:29;18.63;;;1.83;;
37955;SDS011;23776;51.592;7.180;2023-12-22T05:36:56;14.85;;;2.15;;
37955;SDS011;23776;51.592;7.180;2023-12-22T05:39:21;9.15;;;1.38;;
37955;SDS011;23776;51.592;7.180;2023-12-22T05:41:47;7.88;;;1.52;;
37955;SDS011;23776;51.592;7.180;2023-12-22T05:44:13;7.32;;;1.30;;
37955;SDS011;23776;51.592;7.180;2023-12-22T05:46:38;11.00;;;1.10;;
37955;SDS011;23776;51.592;7.180;2023-12-22T05:49:04;11.93;;;1.52;;
37955;SDS011;23776;51.592;7.180;2023-12-22T05:51:37;13.52;;;1.30;;
37955;SDS011;23776;51.592;7.180;2023-12-22T05:54:04;8.07;;;1.05;;
37955;SDS011;23776;51.592;7.180;2023-12-22T05:56:30;13.18;;;1.60;;
37955;SDS011;23776;51.592;7.180;2023-12-22T05:58:56;11.68;;;1.65;;
37955;SDS011;23776;51.592;7.180;2023-12-22T06:01:21;14.45;;;1.83;;
37955;SDS011;23776;51.592;7.180;2023-12-22T06:03:47;16.70;;;1.67;;
37955;SDS011;23776;51.592;7.180;2023-12-22T06:06:13;9.85;;;1.27;;
37955;SDS011;23776;51.592;7.180;2023-12-22T06:08:39;13.52;;;1.60;;
37955;SDS011;23776;51.592;7.180;2023-12-22T06:11:05;8.63;;;1.98;;
37955;SDS011;23776;51.592;7.180;2023-12-22T06:13:31;14.27;;;1.70;;
37955;SDS011;23776;51.592;7.180;2023-12-22T06:15:56;10.85;;;1.48;;
37955;SDS011;23776;51.592;7.180;2023-12-22T06:18:22;15.80;;;1.73;;
37955;SDS011;23776;51.592;7.180;2023-12-22T06:20:48;14.35;;;1.85;;
37955;SDS011;23776;51.592;7.180;2023-12-22T06:23:13;10.98;;;1.88;;
37955;SDS011;23776;51.592;7.180;2023-12-22T06:25:39;17.55;;;2.05;;
37955;SDS011;23776;51.592;7.180;2023-12-22T06:28:05;22.35;;;2.83;;
37955;SDS011;23776;51.592;7.180;2023-12-22T06:30:30;12.15;;;2.33;;
37955;SDS011;23776;51.592;7.180;2023-12-22T06:32:56;14.35;;;2.08;;
37955;SDS011;23776;51.592;7.180;2023-12-22T06:35:21;18.85;;;2.17;;
37955;SDS011;23776;51.592;7.180;2023-12-22T06:37:50;22.50;;;2.33;;
37955;SDS011;23776;51.592;7.180;2023-12-22T06:40:17;12.40;;;2.30;;
37955;SDS011;23776;51.592;7.180;2023-12-22T06:42:44;25.08;;;2.70;;
37955;SDS011;23776;51.592;7.180;2023-12-22T06:45:09;16.05;;;2.60;;
37955;SDS011;23776;51.592;7.180;2023-12-22T06:47:35;15.48;;;2.33;;
37955;SDS011;23776;51.592;7.180;2023-12-22T06:50:01;18.35;;;2.45;;
37955;SDS011;23776;51.592;7.180;2023-12-22T06:52:28;22.70;;;2.63;;
37955;SDS011;23776;51.592;7.180;2023-12-22T06:54:55;26.30;;;3.30;;
37955;SDS011;23776;51.592;7.180;2023-12-22T06:57:21;23.92;;;2.05;;
37955;SDS011;23776;51.592;7.180;2023-12-22T06:59:47;20.35;;;2.88;;
37955;SDS011;23776;51.592;7.180;2023-12-22T07:02:14;18.90;;;3.35;;
37955;SDS011;23776;51.592;7.180;2023-12-22T07:07:33;13.52;;;2.50;;
37955;SDS011;23776;51.592;7.180;2023-12-22T07:09:59;14.65;;;2.35;;
37955;SDS011;23776;51.592;7.180;2023-12-22T07:12:24;25.55;;;2.65;;
37955;SDS011;23776;51.592;7.180;2023-12-22T07:14:50;18.75;;;2.55;;
37955;SDS011;23776;51.592;7.180;2023-12-22T07:17:15;16.63;;;2.13;;
37955;SDS011;23776;51.592;7.180;2023-12-22T07:19:41;18.42;;;2.58;;
37955;SDS011;23776;51.592;7.180;2023-12-22T07:22:06;14.85;;;2.15;;
37955;SDS011;23776;51.592;7.180;2023-12-22T07:24:32;10.32;;;1.67;;
37955;SDS011;23776;51.592;7.180;2023-12-22T07:26:57;19.25;;;2.65;;
37955;SDS011;23776;51.592;7.180;2023-12-22T07:29:23;13.20;;;2.13;;
37955;SDS011;23776;51.592;7.180;2023-12-22T07:31:49;10.45;;;1.52;;
37955;SDS011;23776;51.592;7.180;2023-12-22T07:34:14;16.85;;;2.63;;
37955;SDS011;23776;51.592;7.180;2023-12-22T07:36:40;17.67;;;2.72;;
37955;SDS011;23776;51.592;7.180;2023-12-22T07:39:06;13.60;;;2.03;;
37955;SDS011;23776;51.592;7.180;2023-12-22T07:41:32;24.80;;;3.00;;
37955;SDS011;23776;51.592;7.180;2023-12-22T07:43:57;21.83;;;2.97;;
37955;SDS011;23776;51.592;7.180;2023-12-22T07:46:23;13.35;;;2.70;;
37955;SDS011;23776;51.592;7.180;2023-12-22T07:48:49;12.77;;;2.40;;
37955;SDS011;23776;51.592;7.180;2023-12-22T07:51:15;8.93;;;2.72;;
37955;SDS011;23776;51.592;7.180;2023-12-22T07:53:41;13.25;;;2.65;;
37955;SDS011;23776;51.592;7.180;2023-12-22T07:56:06;17.38;;;3.30;;
37955;SDS011;23776;51.592;7.180;2023-12-22T07:58:33;19.67;;;3.25;;
37955;SDS011;23776;51.592;7.180;2023-12-22T08:00:58;13.48;;;2.53;;
37955;SDS011;23776;51.592;7.180;2023-12-22T08:03:24;19.45;;;3.08;;
37955;SDS011;23776;51.592;7.180;2023-12-22T08:05:50;23.73;;;2.65;;
37955;SDS011;23776;51.592;7.180;2023-12-22T08:08:15;16.10;;;2.22;;
37955;SDS011;23776;51.592;7.180;2023-12-22T08:10:41;28.50;;;3.20;;
37955;SDS011;23776;51.592;7.180;2023-12-22T08:13:06;10.35;;;2.45;;
37955;SDS011;23776;51.592;7.180;2023-12-22T08:15:32;23.08;;;2.95;;
37955;SDS011;23776;51.592;7.180;2023-12-22T08:17:57;12.77;;;2.85;;
37955;SDS011;23776;51.592;7.180;2023-12-22T08:20:23;28.02;;;2.97;;
37955;SDS011;23776;51.592;7.180;2023-12-22T08:22:49;19.67;;;4.18;;
37955;SDS011;23776;51.592;7.180;2023-12-22T08:25:15;22.67;;;2.83;;
37955;SDS011;23776;51.592;7.180;2023-12-22T08:27:42;17.80;;;2.65;;
37955;SDS011;23776;51.592;7.180;2023-12-22T08:30:10;17.23;;;2.45;;
37955;SDS011;23776;51.592;7.180;2023-12-22T08:32:37;17.55;;;2.75;;
37955;SDS011;23776;51.592;7.180;2023-12-22T08:35:03;22.13;;;3.15;;
37955;SDS011;23776;51.592;7.180;2023-12-22T08:37:31;20.40;;;2.83;;
37955;SDS011;23776;51.592;7.180;2023-12-22T08:39:57;20.73;;;4.25;;
37955;SDS011;23776;51.592;7.180;2023-12-22T08:42:23;22.88;;;3.30;;
37955;SDS011;23776;51.592;7.180;2023-12-22T08:44:50;20.65;;;3.42;;
37955;SDS011;23776;51.592;7.180;2023-12-22T08:47:15;20.02;;;3.20;;
37955;SDS011;23776;51.592;7.180;2023-12-22T08:49:41;22.15;;;4.15;;
37955;SDS011;23776;51.592;7.180;2023-12-22T08:52:07;26.85;;;3.88;;
37955;SDS011;23776;51.592;7.180;2023-12-22T08:54:32;29.02;;;3.97;;
37955;SDS011;23776;51.592;7.180;2023-12-22T08:57:00;25.23;;;3.20;;
37955;SDS011;23776;51.592;7.180;2023-12-22T08:59:27;35.33;;;3.95;;
37955;SDS011;23776;51.592;7.180;2023-12-22T09:01:53;28.00;;;4.30;;
37955;SDS011;23776;51.592;7.180;2023-12-22T09:04:18;40.70;;;4.85;;
37955;SDS011;23776;51.592;7.180;2023-12-22T09:06:47;27.63;;;5.05;;
37955;SDS011;23776;51.592;7.180;2023-12-22T09:09:13;38.78;;;5.18;;
37955;SDS011;23776;51.592;7.180;2023-12-22T09:11:38;36.53;;;4.65;;
37955;SDS011;23776;51.592;7.180;2023-12-22T09:14:07;31.13;;;4.60;;
37955;SDS011;23776;51.592;7.180;2023-12-22T09:16:35;28.83;;;4.43;;
37955;SDS011;23776;51.592;7.180;2023-12-22T09:19:02;41.45;;;6.30;;
37955;SDS011;23776;51.592;7.180;2023-12-22T09:21:28;25.67;;;5.20;;
37955;SDS011;23776;51.592;7.180;2023-12-22T09:23:54;36.35;;;5.03;;
37955;SDS011;23776;51.592;7.180;2023-12-22T09:26:19;39.65;;;5.43;;
37955;SDS011;23776;51.592;7.180;2023-12-22T09:28:45;35.08;;;6.07;;
37955;SDS011;23776;51.592;7.180;2023-12-22T09:31:11;33.30;;;5.00;;
37955;SDS011;23776;51.592;7.180;2023-12-22T09:33:40;32.55;;;4.68;;
37955;SDS011;23776;51.592;7.180;2023-12-22T09:36:07;30.80;;;4.30;;
37955;SDS011;23776;51.592;7.180;2023-12-22T09:38:33;24.17;;;2.85;;
37955;SDS011;23776;51.592;7.180;2023-12-22T09:40:59;22.83;;;3.88;;
37955;SDS011;23776;51.592;7.180;2023-12-22T09:43:25;21.30;;;2.85;;
37955;SDS011;23776;51.592;7.180;2023-12-22T09:45:50;19.13;;;3.05;;
37955;SDS011;23776;51.592;7.180;2023-12-22T09:48:17;15.55;;;2.45;;
37955;SDS011;23776;51.592;7.180;2023-12-22T09:50:43;28.35;;;4.13;;
37955;SDS011;23776;51.592;7.180;2023-12-22T09:53:13;16.88;;;2.50;;
37955;SDS011;23776;51.592;7.180;2023-12-22T09:55:39;13.68;;;2.53;;
37955;SDS011;23776;51.592;7.180;2023-12-22T09:58:08;22.63;;;2.67;;
37955;SDS011;23776;51.592;7.180;2023-12-22T10:00:35;23.98;;;3.03;;
37955;SDS011;23776;51.592;7.180;2023-12-22T10:03:04;14.02;;;1.92;;
37955;SDS011;23776;51.592;7.180;2023-12-22T10:05:31;21.08;;;2.35;;
37955;SDS011;23776;51.592;7.180;2023-12-22T10:07:57;18.27;;;2.90;;
37955;SDS011;23776;51.592;7.180;2023-12-22T10:10:25;22.70;;;3.13;;
37955;SDS011;23776;51.592;7.180;2023-12-22T10:12:54;17.38;;;3.20;;
37955;SDS011;23776;51.592;7.180;2023-12-22T10:15:20;23.20;;;3.75;;
37955;SDS011;23776;51.592;7.180;2023-12-22T10:17:49;20.45;;;3.28;;
37955;SDS011;23776;51.592;7.180;2023-12-22T10:20:15;15.43;;;3.08;;
37955;SDS011;23776;51.592;7.180;2023-12-22T10:22:41;19.65;;;3.28;;
37955;SDS011;23776;51.592;7.180;2023-12-22T10:25:07;16.27;;;3.30;;
37955;SDS011;23776;51.592;7.180;2023-12-22T10:27:34;22.08;;;2.90;;
37955;SDS011;23776;51.592;7.180;2023-12-22T10:30:01;19.00;;;3.13;;
37955;SDS011;23776;51.592;7.180;2023-12-22T10:32:28;12.40;;;2.80;;
37955;SDS011;23776;51.592;7.180;2023-12-22T10:34:55;14.18;;;2.60;;
37955;SDS011;23776;51.592;7.180;2023-12-22T10:37:22;18.77;;;3.28;;
37955;SDS011;23776;51.592;7.180;2023-12-22T10:39:51;27.70;;;3.20;;
37955;SDS011;23776;51.592;7.180;2023-12-22T10:42:20;23.45;;;3.55;;
37955;SDS011;23776;51.592;7.180;2023-12-22T10:44:46;17.90;;;3.50;;
37955;SDS011;23776;51.592;7.180;2023-12-22T10:47:13;20.70;;;3.17;;
37955;SDS011;23776;51.592;7.180;2023-12-22T10:49:38;15.45;;;3.90;;
37955;SDS011;23776;51.592;7.180;2023-12-22T10:52:04;22.10;;;3.67;;
37955;SDS011;23776;51.592;7.180;2023-12-22T10:54:30;23.67;;;2.65;;
37955;SDS011;23776;51.592;7.180;2023-12-22T10:56:59;23.00;;;4.05;;
37955;SDS011;23776;51.592;7.180;2023-12-22T10:59:27;17.55;;;2.88;;
37955;SDS011;23776;51.592;7.180;2023-12-22T11:01:54;24.77;;;3.42;;
37955;SDS011;23776;51.592;7.180;2023-12-22T11:04:22;11.88;;;3.20;;
37955;SDS011;23776;51.592;7.180;2023-12-22T11:06:54;15.57;;;2.58;;
37955;SDS011;23776;51.592;7.180;2023-12-22T11:09:23;18.08;;;2.70;;
37955;SDS011;23776;51.592;7.180;2023-12-22T11:11:51;16.50;;;3.30;;
37955;SDS011;23776;51.592;7.180;2023-12-22T11:14:17;13.50;;;2.90;;
37955;SDS011;23776;51.592;7.180;2023-12-22T11:16:44;10.48;;;2.28;;
37955;SDS011;23776;51.592;7.180;2023-12-22T11:19:13;9.98;;;2.20;;
37955;SDS011;23776;51.592;7.180;2023-12-22T11:21:40;14.57;;;2.67;;
37955;SDS011;23776;51.592;7.180;2023-12-22T11:24:06;22.20;;;2.20;;
37955;SDS011;23776;51.592;7.180;2023-12-22T11:26:33;9.80;;;2.15;;
37955;SDS011;23776;51.592;7.180;2023-12-22T11:28:59;5.95;;;1.30;;
37955;SDS011;23776;51.592;7.180;2023-12-22T11:31:27;8.38;;;2.67;;
37955;SDS011;23776;51.592;7.180;2023-12-22T11:33:56;8.60;;;1.98;;
37955;SDS011;23776;51.592;7.180;2023-12-22T11:36:24;6.15;;;1.30;;
37955;SDS011;23776;51.592;7.180;2023-12-22T11:38:50;9.38;;;1.10;;
37955;SDS011;23776;51.592;7.180;2023-12-22T11:41:17;10.20;;;1.20;;
37955;SDS011;23776;51.592;7.180;2023-12-22T11:43:46;9.45;;;1.70;;
37955;SDS011;23776;51.592;7.180;2023-12-22T11:46:13;5.95;;;1.88;;
37955;SDS011;23776;51.592;7.180;2023-12-22T11:48:48;10.52;;;1.25;;
37955;SDS011;23776;51.592;7.180;2023-12-22T11:51:16;3.35;;;1.33;;
37955;SDS011;23776;51.592;7.180;2023-12-22T11:53:42;3.55;;;1.23;;
37955;SDS011;23776;51.592;7.180;2023-12-22T11:56:09;9.20;;;1.77;;
37955;SDS011;23776;51.592;7.180;2023-12-22T11:58:42;3.40;;;1.30;;
37955;SDS011;23776;51.592;7.180;2023-12-22T12:01:16;11.70;;;2.05;;
37955;SDS011;23776;51.592;7.180;2023-12-22T12:03:52;13.48;;;1.77;;
37955;SDS011;23776;51.592;7.180;2023-12-22T12:08:57;6.18;;;1.50;;
37955;SDS011;23776;51.592;7.180;2023-12-22T12:11:27;8.23;;;1.77;;
37955;SDS011;23776;51.592;7.180;2023-12-22T12:14:22;12.30;;;1.65;;
37955;SDS011;23776;51.592;7.180;2023-12-22T12:16:56;7.82;;;2.75;;
37955;SDS011;23776;51.592;7.180;2023-12-22T12:19:30;11.32;;;2.10;;
37955;SDS011;23776;51.592;7.180;2023-12-22T12:21:58;9.35;;;1.45;;
37955;SDS011;23776;51.592;7.180;2023-12-22T12:24:25;7.35;;;1.30;;
37955;SDS011;23776;51.592;7.180;2023-12-22T12:26:50;3.33;;;1.27;;
37955;SDS011;23776;51.592;7.180;2023-12-22T12:29:16;3.45;;;1.45;;
37955;SDS011;23776;51.592;7.180;2023-12-22T12:31:42;8.52;;;1.35;;
37955;SDS011;23776;51.592;7.180;2023-12-22T12:34:10;6.35;;;1.60;;
37955;SDS011;23776;51.592;7.180;2023-12-22T12:36:36;4.38;;;1.30;;
37955;SDS011;23776;51.592;7.180;2023-12-22T12:39:07;5.18;;;1.70;;
37955;SDS011;23776;51.592;7.180;2023-12-22T12:41:36;6.25;;;1.38;;
37955;SDS011;23776;51.592;7.180;2023-12-22T12:44:11;6.97;;;1.30;;
37955;SDS011;23776;51.592;7.180;2023-12-22T12:46:37;7.07;;;1.48;;
37955;SDS011;23776;51.592;7.180;2023-12-22T12:51:30;8.27;;;1.80;;
37955;SDS011;23776;51.592;7.180;2023-12-22T12:54:00;12.55;;;2.72;;
37955;SDS011;23776;51.592;7.180;2023-12-22T12:56:26;7.15;;;1.77;;
37955;SDS011;23776;51.592;7.180;2023-12-22T12:58:52;8.68;;;1.90;;
37955;SDS011;23776;51.592;7.180;2023-12-22T13:01:17;8.35;;;1.80;;
37955;SDS011;23776;51.592;7.180;2023-12-22T13:03:55;8.25;;;2.20;;
37955;SDS011;23776;51.592;7.180;2023-12-22T13:06:21;9.65;;;1.95;;
37955;SDS011;23776;51.592;7.180;2023-12-22T13:08:48;12.15;;;2.78;;
37955;SDS011;23776;51.592;7.180;2023-12-22T13:11:15;12.32;;;1.75;;
37955;SDS011;23776;51.592;7.180;2023-12-22T13:13:45;11.85;;;1.50;;
37955;SDS011;23776;51.592;7.180;2023-12-22T13:16:10;9.70;;;2.17;;
37955;SDS011;23776;51.592;7.180;2023-12-22T13:18:36;7.20;;;1.48;;
37955;SDS011;23776;51.592;7.180;2023-12-22T13:21:03;4.93;;;1.05;;
37955;SDS011;23776;51.592;7.180;2023-12-22T13:23:29;3.10;;;1.40;;
37955;SDS011;23776;51.592;7.180;2023-12-22T13:25:54;4.25;;;1.02;;
37955;SDS011;23776;51.592;7.180;2023-12-22T13:28:27;6.50;;;1.20;;
37955;SDS011;23776;51.592;7.180;2023-12-22T13:30:53;8.50;;;1.30;;
37955;SDS011;23776;51.592;7.180;2023-12-22T13:33:19;4.65;;;1.60;;
37955;SDS011;23776;51.592;7.180;2023-12-22T13:35:45;5.28;;;1.50;;
37955;SDS011;23776;51.592;7.180;2023-12-22T13:38:12;3.75;;;1.08;;
37955;SDS011;23776;51.592;7.180;2023-12-22T13:40:38;17.98;;;3.42;;
37955;SDS011;23776;51.592;7.180;2023-12-22T13:43:09;15.15;;;4.50;;
37955;SDS011;23776;51.592;7.180;2023-12-22T13:45:34;13.00;;;1.80;;
37955;SDS011;23776;51.592;7.180;2023-12-22T13:48:00;8.13;;;1.95;;
37955;SDS011;23776;51.592;7.180;2023-12-22T13:50:26;28.20;;;5.80;;
37955;SDS011;23776;51.592;7.180;2023-12-22T13:52:51;12.27;;;2.83;;
37955;SDS011;23776;51.592;7.180;2023-12-22T13:55:18;10.90;;;3.63;;
37955;SDS011;23776;51.592;7.180;2023-12-22T13:57:47;16.60;;;2.83;;
37955;SDS011;23776;51.592;7.180;2023-12-22T14:02:45;15.15;;;3.10;;
37955;SDS011;23776;51.592;7.180;2023-12-22T14:05:11;14.18;;;2.20;;
37955;SDS011;23776;51.592;7.180;2023-12-22T14:07:36;8.57;;;1.83;;
37955;SDS011;23776;51.592;7.180;2023-12-22T14:10:08;14.95;;;2.28;;
37955;SDS011;23776;51.592;7.180;2023-12-22T14:12:35;7.67;;;2.37;;
37955;SDS011;23776;51.592;7.180;2023-12-22T14:15:03;10.27;;;2.05;;
37955;SDS011;23776;51.592;7.180;2023-12-22T14:17:32;11.82;;;1.70;;
37955;SDS011;23776;51.592;7.180;2023-12-22T14:19:58;8.93;;;2.00;;
37955;SDS011;23776;51.592;7.180;2023-12-22T14:22:23;3.95;;;1.58;;
37955;SDS011;23776;51.592;7.180;2023-12-22T14:24:49;6.85;;;1.90;;
37955;SDS011;23776;51.592;7.180;2023-12-22T14:27:15;6.72;;;1.67;;
37955;SDS011;23776;51.592;7.180;2023-12-22T14:29:43;6.60;;;1.70;;
37955;SDS011;23776;51.592;7.180;2023-12-22T14:32:12;7.65;;;1.40;;
37955;SDS011;23776;51.592;7.180;2023-12-22T14:34:39;7.00;;;1.60;;
37955;SDS011;23776;51.592;7.180;2023-12-22T14:37:08;6.55;;;1.70;;
37955;SDS011;23776;51.592;7.180;2023-12-22T14:39:33;12.73;;;1.58;;
37955;SDS011;23776;51.592;7.180;2023-12-22T14:42:00;12.13;;;2.05;;
37955;SDS011;23776;51.592;7.180;2023-12-22T14:44:28;4.65;;;1.70;;
37955;SDS011;23776;51.592;7.180;2023-12-22T14:46:53;7.47;;;1.55;;